sensor_id;sensor_type;location;lat;lon;timestamp;P1;durP1;ratioP1;P2;durP2;ratioP2
59336;SDS011;45115;52.002;4.686;2022-10-16T00:01:25;4.70;;;2.72;;
59336;SDS011;45115;52.002;4.686;2022-10-16T00:03:54;4.55;;;2.60;;
59336;SDS011;45115;52.002;4.686;2022-10-16T00:06:22;7.47;;;2.72;;
59336;SDS011;45115;52.002;4.686;2022-10-16T00:08:49;7.35;;;2.55;;
59336;SDS011;45115;52.002;4.686;2022-10-16T00:11:17;3.60;;;2.53;;
59336;SDS011;45115;52.002;4.686;2022-10-16T00:13:46;4.63;;;2.40;;
59336;SDS011;45115;52.002;4.686;2022-10-16T00:16:14;5.03;;;2.30;;
59336;SDS011;45115;52.002;4.686;2022-10-16T00:18:42;4.35;;;2.60;;
59336;SDS011;45115;52.002;4.686;2022-10-16T00:21:10;4.03;;;2.15;;
59336;SDS011;45115;52.002;4.686;2022-10-16T00:23:39;2.90;;;2.38;;
59336;SDS011;45115;52.002;4.686;2022-10-16T00:26:06;2.95;;;2.13;;
59336;SDS011;45115;52.002;4.686;2022-10-16T00:28:34;3.30;;;2.28;;
59336;SDS011;45115;52.002;4.686;2022-10-16T00:31:03;3.90;;;2.42;;
59336;SDS011;45115;52.002;4.686;2022-10-16T00:33:32;3.55;;;2.25;;
59336;SDS011;45115;52.002;4.686;2022-10-16T00:35:59;6.28;;;3.08;;
59336;SDS011;45115;52.002;4.686;2022-10-16T00:38:26;4.97;;;2.15;;
59336;SDS011;45115;52.002;4.686;2022-10-16T00:40:53;3.35;;;1.80;;
59336;SDS011;45115;52.002;4.686;2022-10-16T00:43:33;2.95;;;1.85;;
59336;SDS011;45115;52.002;4.686;2022-10-16T00:46:07;3.03;;;2.15;;
59336;SDS011;45115;52.002;4.686;2022-10-16T00:48:41;4.75;;;2.20;;
59336;SDS011;45115;52.002;4.686;2022-10-16T00:51:11;4.47;;;2.58;;
59336;SDS011;45115;52.002;4.686;2022-10-16T00:53:38;5.25;;;2.17;;
59336;SDS011;45115;52.002;4.686;2022-10-16T00:56:04;5.10;;;2.45;;
59336;SDS011;45115;52.002;4.686;2022-10-16T00:58:32;5.72;;;2.63;;
59336;SDS011;45115;52.002;4.686;2022-10-16T01:00:58;4.53;;;3.75;;
59336;SDS011;45115;52.002;4.686;2022-10-16T01:03:26;6.82;;;2.58;;
59336;SDS011;45115;52.002;4.686;2022-10-16T01:05:59;6.32;;;2.90;;
59336;SDS011;45115;52.002;4.686;2022-10-16T01:08:44;2.72;;;2.40;;
59336;SDS011;45115;52.002;4.686;2022-10-16T01:11:20;4.10;;;2.70;;
59336;SDS011;45115;52.002;4.686;2022-10-16T01:13:52;3.65;;;2.75;;
59336;SDS011;45115;52.002;4.686;2022-10-16T01:16:23;5.57;;;2.72;;
59336;SDS011;45115;52.002;4.686;2022-10-16T01:18:57;5.28;;;2.55;;
59336;SDS011;45115;52.002;4.686;2022-10-16T01:21:35;6.53;;;2.83;;
59336;SDS011;45115;52.002;4.686;2022-10-16T01:24:06;4.50;;;2.63;;
59336;SDS011;45115;52.002;4.686;2022-10-16T01:26:43;5.13;;;2.83;;
59336;SDS011;45115;52.002;4.686;2022-10-16T01:29:21;4.18;;;2.47;;
59336;SDS011;45115;52.002;4.686;2022-10-16T01:31:53;5.13;;;2.45;;
59336;SDS011;45115;52.002;4.686;2022-10-16T01:34:28;3.55;;;2.50;;
59336;SDS011;45115;52.002;4.686;2022-10-16T01:37:00;5.30;;;2.60;;
59336;SDS011;45115;52.002;4.686;2022-10-16T01:39:32;3.58;;;2.40;;
59336;SDS011;45115;52.002;4.686;2022-10-16T01:42:03;4.57;;;2.70;;
59336;SDS011;45115;52.002;4.686;2022-10-16T01:44:34;4.65;;;2.90;;
59336;SDS011;45115;52.002;4.686;2022-10-16T01:47:03;3.90;;;3.05;;
59336;SDS011;45115;52.002;4.686;2022-10-16T01:49:32;5.55;;;3.03;;
59336;SDS011;45115;52.002;4.686;2022-10-16T01:52:02;7.50;;;3.20;;
59336;SDS011;45115;52.002;4.686;2022-10-16T01:54:32;7.07;;;3.15;;
59336;SDS011;45115;52.002;4.686;2022-10-16T01:57:01;4.03;;;2.75;;
59336;SDS011;45115;52.002;4.686;2022-10-16T01:59:31;3.85;;;2.58;;
59336;SDS011;45115;52.002;4.686;2022-10-16T02:02:04;4.07;;;2.85;;
59336;SDS011;45115;52.002;4.686;2022-10-16T02:04:34;4.85;;;3.10;;
59336;SDS011;45115;52.002;4.686;2022-10-16T02:07:04;5.03;;;3.00;;
59336;SDS011;45115;52.002;4.686;2022-10-16T02:09:32;5.40;;;3.40;;
59336;SDS011;45115;52.002;4.686;2022-10-16T02:12:01;6.05;;;3.17;;
59336;SDS011;45115;52.002;4.686;2022-10-16T02:14:32;6.57;;;3.22;;
59336;SDS011;45115;52.002;4.686;2022-10-16T02:16:59;6.32;;;3.50;;
59336;SDS011;45115;52.002;4.686;2022-10-16T02:19:27;6.53;;;3.67;;
59336;SDS011;45115;52.002;4.686;2022-10-16T02:21:54;3.88;;;3.10;;
59336;SDS011;45115;52.002;4.686;2022-10-16T02:24:24;7.07;;;3.50;;
59336;SDS011;45115;52.002;4.686;2022-10-16T02:27:01;5.07;;;3.25;;
59336;SDS011;45115;52.002;4.686;2022-10-16T02:29:33;6.10;;;3.22;;
59336;SDS011;45115;52.002;4.686;2022-10-16T02:32:05;5.60;;;3.28;;
59336;SDS011;45115;52.002;4.686;2022-10-16T02:34:36;6.85;;;3.30;;
59336;SDS011;45115;52.002;4.686;2022-10-16T02:37:06;6.05;;;3.60;;
59336;SDS011;45115;52.002;4.686;2022-10-16T02:39:33;6.50;;;3.45;;
59336;SDS011;45115;52.002;4.686;2022-10-16T02:42:01;6.20;;;3.30;;
59336;SDS011;45115;52.002;4.686;2022-10-16T02:44:27;5.15;;;3.20;;
59336;SDS011;45115;52.002;4.686;2022-10-16T02:46:54;6.85;;;3.08;;
59336;SDS011;45115;52.002;4.686;2022-10-16T02:49:21;6.00;;;3.40;;
59336;SDS011;45115;52.002;4.686;2022-10-16T02:51:49;4.90;;;3.00;;
59336;SDS011;45115;52.002;4.686;2022-10-16T02:54:16;5.45;;;2.92;;
59336;SDS011;45115;52.002;4.686;2022-10-16T02:56:42;5.13;;;3.00;;
59336;SDS011;45115;52.002;4.686;2022-10-16T02:59:09;7.20;;;3.03;;
59336;SDS011;45115;52.002;4.686;2022-10-16T03:01:35;8.40;;;2.90;;
59336;SDS011;45115;52.002;4.686;2022-10-16T03:04:02;7.82;;;2.95;;
59336;SDS011;45115;52.002;4.686;2022-10-16T03:06:29;5.82;;;2.70;;
59336;SDS011;45115;52.002;4.686;2022-10-16T03:08:57;5.57;;;2.83;;
59336;SDS011;45115;52.002;4.686;2022-10-16T03:11:24;5.28;;;2.92;;
59336;SDS011;45115;52.002;4.686;2022-10-16T03:13:51;5.18;;;2.65;;
59336;SDS011;45115;52.002;4.686;2022-10-16T03:16:18;4.72;;;2.78;;
59336;SDS011;45115;52.002;4.686;2022-10-16T03:18:47;5.55;;;2.88;;
59336;SDS011;45115;52.002;4.686;2022-10-16T03:21:14;3.72;;;2.70;;
59336;SDS011;45115;52.002;4.686;2022-10-16T03:23:41;4.82;;;2.55;;
59336;SDS011;45115;52.002;4.686;2022-10-16T03:26:09;5.50;;;2.97;;
59336;SDS011;45115;52.002;4.686;2022-10-16T03:28:36;6.05;;;3.08;;
59336;SDS011;45115;52.002;4.686;2022-10-16T03:31:03;4.00;;;2.53;;
59336;SDS011;45115;52.002;4.686;2022-10-16T03:33:29;6.72;;;3.20;;
59336;SDS011;45115;52.002;4.686;2022-10-16T03:35:56;6.55;;;3.17;;
59336;SDS011;45115;52.002;4.686;2022-10-16T03:38:23;6.05;;;3.03;;
59336;SDS011;45115;52.002;4.686;2022-10-16T03:40:50;5.45;;;2.78;;
59336;SDS011;45115;52.002;4.686;2022-10-16T03:43:17;4.70;;;2.63;;
59336;SDS011;45115;52.002;4.686;2022-10-16T03:45:44;6.75;;;2.97;;
59336;SDS011;45115;52.002;4.686;2022-10-16T03:48:13;5.38;;;2.65;;
59336;SDS011;45115;52.002;4.686;2022-10-16T03:50:40;5.25;;;3.00;;
59336;SDS011;45115;52.002;4.686;2022-10-16T03:53:06;5.85;;;2.72;;
59336;SDS011;45115;52.002;4.686;2022-10-16T03:55:33;5.68;;;2.70;;
59336;SDS011;45115;52.002;4.686;2022-10-16T03:58:00;4.30;;;2.70;;
59336;SDS011;45115;52.002;4.686;2022-10-16T04:00:28;5.88;;;2.90;;
59336;SDS011;45115;52.002;4.686;2022-10-16T04:02:55;5.03;;;2.83;;
59336;SDS011;45115;52.002;4.686;2022-10-16T04:05:22;3.00;;;2.38;;
59336;SDS011;45115;52.002;4.686;2022-10-16T04:07:48;3.95;;;2.88;;
59336;SDS011;45115;52.002;4.686;2022-10-16T04:10:15;5.55;;;2.55;;
59336;SDS011;45115;52.002;4.686;2022-10-16T04:12:42;6.50;;;2.90;;
59336;SDS011;45115;52.002;4.686;2022-10-16T04:15:08;4.50;;;2.53;;
59336;SDS011;45115;52.002;4.686;2022-10-16T04:17:37;5.47;;;2.67;;
59336;SDS011;45115;52.002;4.686;2022-10-16T04:20:04;3.45;;;2.30;;
59336;SDS011;45115;52.002;4.686;2022-10-16T04:22:31;3.58;;;2.28;;
59336;SDS011;45115;52.002;4.686;2022-10-16T04:24:58;5.30;;;2.67;;
59336;SDS011;45115;52.002;4.686;2022-10-16T04:27:24;4.90;;;2.50;;
59336;SDS011;45115;52.002;4.686;2022-10-16T04:29:51;5.72;;;2.95;;
59336;SDS011;45115;52.002;4.686;2022-10-16T04:32:18;3.72;;;2.55;;
59336;SDS011;45115;52.002;4.686;2022-10-16T04:34:46;4.85;;;2.30;;
59336;SDS011;45115;52.002;4.686;2022-10-16T04:37:12;4.40;;;2.80;;
59336;SDS011;45115;52.002;4.686;2022-10-16T04:39:39;6.40;;;2.70;;
59336;SDS011;45115;52.002;4.686;2022-10-16T04:42:06;4.78;;;2.42;;
59336;SDS011;45115;52.002;4.686;2022-10-16T04:44:34;3.78;;;2.45;;
59336;SDS011;45115;52.002;4.686;2022-10-16T04:47:00;5.80;;;2.90;;
59336;SDS011;45115;52.002;4.686;2022-10-16T04:49:27;5.22;;;3.15;;
59336;SDS011;45115;52.002;4.686;2022-10-16T04:51:55;6.13;;;2.80;;
59336;SDS011;45115;52.002;4.686;2022-10-16T04:54:22;5.50;;;2.63;;
59336;SDS011;45115;52.002;4.686;2022-10-16T04:56:48;2.92;;;2.33;;
59336;SDS011;45115;52.002;4.686;2022-10-16T04:59:17;3.70;;;2.50;;
59336;SDS011;45115;52.002;4.686;2022-10-16T05:01:44;6.30;;;2.92;;
59336;SDS011;45115;52.002;4.686;2022-10-16T05:04:11;4.03;;;2.50;;
59336;SDS011;45115;52.002;4.686;2022-10-16T05:06:39;4.50;;;2.72;;
59336;SDS011;45115;52.002;4.686;2022-10-16T05:09:08;5.05;;;2.80;;
59336;SDS011;45115;52.002;4.686;2022-10-16T05:11:35;5.32;;;2.58;;
59336;SDS011;45115;52.002;4.686;2022-10-16T05:14:02;4.45;;;2.58;;
59336;SDS011;45115;52.002;4.686;2022-10-16T05:19:09;7.15;;;2.60;;
59336;SDS011;45115;52.002;4.686;2022-10-16T05:21:36;5.68;;;2.47;;
59336;SDS011;45115;52.002;4.686;2022-10-16T05:24:03;5.63;;;2.80;;
59336;SDS011;45115;52.002;4.686;2022-10-16T05:26:31;4.70;;;2.85;;
59336;SDS011;45115;52.002;4.686;2022-10-16T05:28:57;4.30;;;2.30;;
59336;SDS011;45115;52.002;4.686;2022-10-16T05:31:24;7.18;;;2.60;;
59336;SDS011;45115;52.002;4.686;2022-10-16T05:33:51;6.95;;;2.70;;
59336;SDS011;45115;52.002;4.686;2022-10-16T05:36:17;8.75;;;3.03;;
59336;SDS011;45115;52.002;4.686;2022-10-16T05:38:44;6.68;;;3.15;;
59336;SDS011;45115;52.002;4.686;2022-10-16T05:41:11;4.85;;;2.70;;
59336;SDS011;45115;52.002;4.686;2022-10-16T05:43:39;3.97;;;2.67;;
59336;SDS011;45115;52.002;4.686;2022-10-16T05:46:11;3.85;;;2.40;;
59336;SDS011;45115;52.002;4.686;2022-10-16T05:48:54;4.50;;;2.50;;
59336;SDS011;45115;52.002;4.686;2022-10-16T05:51:21;4.40;;;2.83;;
59336;SDS011;45115;52.002;4.686;2022-10-16T05:53:48;5.85;;;3.00;;
59336;SDS011;45115;52.002;4.686;2022-10-16T05:56:14;4.13;;;2.47;;
59336;SDS011;45115;52.002;4.686;2022-10-16T05:58:43;3.67;;;2.88;;
59336;SDS011;45115;52.002;4.686;2022-10-16T06:01:10;6.05;;;2.95;;
59336;SDS011;45115;52.002;4.686;2022-10-16T06:03:38;6.25;;;2.50;;
59336;SDS011;45115;52.002;4.686;2022-10-16T06:06:09;5.13;;;2.72;;
59336;SDS011;45115;52.002;4.686;2022-10-16T06:08:37;6.90;;;2.80;;
59336;SDS011;45115;52.002;4.686;2022-10-16T06:11:05;3.53;;;2.10;;
59336;SDS011;45115;52.002;4.686;2022-10-16T06:13:32;5.95;;;2.85;;
59336;SDS011;45115;52.002;4.686;2022-10-16T06:16:00;6.50;;;3.05;;
59336;SDS011;45115;52.002;4.686;2022-10-16T06:18:28;8.10;;;2.65;;
59336;SDS011;45115;52.002;4.686;2022-10-16T06:20:56;6.00;;;2.70;;
59336;SDS011;45115;52.002;4.686;2022-10-16T06:23:23;5.57;;;2.40;;
59336;SDS011;45115;52.002;4.686;2022-10-16T06:25:51;7.28;;;2.25;;
59336;SDS011;45115;52.002;4.686;2022-10-16T06:28:17;4.65;;;2.10;;
59336;SDS011;45115;52.002;4.686;2022-10-16T06:30:44;2.55;;;1.80;;
59336;SDS011;45115;52.002;4.686;2022-10-16T06:33:12;2.88;;;1.88;;
59336;SDS011;45115;52.002;4.686;2022-10-16T06:35:39;4.22;;;1.95;;
59336;SDS011;45115;52.002;4.686;2022-10-16T06:38:06;5.63;;;2.00;;
59336;SDS011;45115;52.002;4.686;2022-10-16T06:40:32;4.65;;;1.63;;
59336;SDS011;45115;52.002;4.686;2022-10-16T06:42:59;3.45;;;1.83;;
59336;SDS011;45115;52.002;4.686;2022-10-16T06:45:26;5.53;;;1.48;;
59336;SDS011;45115;52.002;4.686;2022-10-16T06:47:54;5.82;;;1.55;;
59336;SDS011;45115;52.002;4.686;2022-10-16T06:50:22;3.30;;;1.83;;
59336;SDS011;45115;52.002;4.686;2022-10-16T06:52:49;6.85;;;2.10;;
59336;SDS011;45115;52.002;4.686;2022-10-16T06:55:16;5.18;;;2.03;;
59336;SDS011;45115;52.002;4.686;2022-10-16T06:57:43;3.53;;;1.75;;
59336;SDS011;45115;52.002;4.686;2022-10-16T07:00:12;5.10;;;1.73;;
59336;SDS011;45115;52.002;4.686;2022-10-16T07:02:39;5.95;;;2.22;;
59336;SDS011;45115;52.002;4.686;2022-10-16T07:05:06;4.47;;;2.20;;
59336;SDS011;45115;52.002;4.686;2022-10-16T07:07:37;6.13;;;2.13;;
59336;SDS011;45115;52.002;4.686;2022-10-16T07:10:04;6.68;;;2.10;;
59336;SDS011;45115;52.002;4.686;2022-10-16T07:12:31;3.30;;;2.20;;
59336;SDS011;45115;52.002;4.686;2022-10-16T07:14:57;4.88;;;2.33;;
59336;SDS011;45115;52.002;4.686;2022-10-16T07:17:24;6.97;;;2.47;;
59336;SDS011;45115;52.002;4.686;2022-10-16T07:19:51;5.80;;;2.20;;
59336;SDS011;45115;52.002;4.686;2022-10-16T07:22:18;4.85;;;2.45;;
59336;SDS011;45115;52.002;4.686;2022-10-16T07:24:46;4.25;;;2.35;;
59336;SDS011;45115;52.002;4.686;2022-10-16T07:27:13;8.15;;;2.60;;
59336;SDS011;45115;52.002;4.686;2022-10-16T07:29:41;6.57;;;2.83;;
59336;SDS011;45115;52.002;4.686;2022-10-16T07:32:08;6.07;;;2.50;;
59336;SDS011;45115;52.002;4.686;2022-10-16T07:34:35;6.38;;;2.78;;
59336;SDS011;45115;52.002;4.686;2022-10-16T07:37:02;5.15;;;3.08;;
59336;SDS011;45115;52.002;4.686;2022-10-16T07:39:28;4.70;;;2.53;;
59336;SDS011;45115;52.002;4.686;2022-10-16T07:41:56;10.00;;;3.63;;
59336;SDS011;45115;52.002;4.686;2022-10-16T07:44:23;7.25;;;2.80;;
59336;SDS011;45115;52.002;4.686;2022-10-16T07:46:50;6.85;;;2.95;;
59336;SDS011;45115;52.002;4.686;2022-10-16T07:49:17;3.88;;;2.70;;
59336;SDS011;45115;52.002;4.686;2022-10-16T07:51:43;5.57;;;2.70;;
59336;SDS011;45115;52.002;4.686;2022-10-16T07:54:10;5.53;;;2.40;;
59336;SDS011;45115;52.002;4.686;2022-10-16T07:56:37;6.30;;;2.63;;
59336;SDS011;45115;52.002;4.686;2022-10-16T07:59:05;5.28;;;2.38;;
59336;SDS011;45115;52.002;4.686;2022-10-16T08:01:32;6.45;;;2.75;;
59336;SDS011;45115;52.002;4.686;2022-10-16T08:03:59;8.85;;;2.80;;
59336;SDS011;45115;52.002;4.686;2022-10-16T08:06:25;4.30;;;2.28;;
59336;SDS011;45115;52.002;4.686;2022-10-16T08:08:52;6.22;;;2.25;;
59336;SDS011;45115;52.002;4.686;2022-10-16T08:11:19;4.30;;;2.20;;
59336;SDS011;45115;52.002;4.686;2022-10-16T08:13:45;4.45;;;1.80;;
59336;SDS011;45115;52.002;4.686;2022-10-16T08:16:13;8.57;;;2.40;;
59336;SDS011;45115;52.002;4.686;2022-10-16T08:18:41;3.08;;;2.13;;
59336;SDS011;45115;52.002;4.686;2022-10-16T08:21:11;5.88;;;1.95;;
59336;SDS011;45115;52.002;4.686;2022-10-16T08:23:40;6.25;;;2.22;;
59336;SDS011;45115;52.002;4.686;2022-10-16T08:26:07;6.72;;;2.40;;
59336;SDS011;45115;52.002;4.686;2022-10-16T08:28:34;5.60;;;2.10;;
59336;SDS011;45115;52.002;4.686;2022-10-16T08:31:05;4.88;;;2.10;;
59336;SDS011;45115;52.002;4.686;2022-10-16T08:33:34;4.07;;;2.22;;
59336;SDS011;45115;52.002;4.686;2022-10-16T08:36:01;10.13;;;2.20;;
59336;SDS011;45115;52.002;4.686;2022-10-16T08:38:29;7.40;;;2.35;;
59336;SDS011;45115;52.002;4.686;2022-10-16T08:40:56;8.35;;;3.15;;
59336;SDS011;45115;52.002;4.686;2022-10-16T08:43:43;6.93;;;2.50;;
59336;SDS011;45115;52.002;4.686;2022-10-16T08:46:21;7.70;;;2.40;;
59336;SDS011;45115;52.002;4.686;2022-10-16T08:48:59;5.22;;;2.40;;
59336;SDS011;45115;52.002;4.686;2022-10-16T08:51:26;7.40;;;2.25;;
59336;SDS011;45115;52.002;4.686;2022-10-16T08:53:56;6.60;;;2.40;;
59336;SDS011;45115;52.002;4.686;2022-10-16T08:56:24;8.27;;;2.33;;
59336;SDS011;45115;52.002;4.686;2022-10-16T08:58:52;6.72;;;2.20;;
59336;SDS011;45115;52.002;4.686;2022-10-16T09:01:21;7.47;;;2.30;;
59336;SDS011;45115;52.002;4.686;2022-10-16T09:03:53;8.15;;;3.38;;
59336;SDS011;45115;52.002;4.686;2022-10-16T09:06:41;6.38;;;2.55;;
59336;SDS011;45115;52.002;4.686;2022-10-16T09:09:17;7.07;;;2.53;;
59336;SDS011;45115;52.002;4.686;2022-10-16T09:11:55;7.97;;;2.90;;
59336;SDS011;45115;52.002;4.686;2022-10-16T09:14:34;8.32;;;2.75;;
59336;SDS011;45115;52.002;4.686;2022-10-16T09:17:24;6.75;;;2.72;;
59336;SDS011;45115;52.002;4.686;2022-10-16T09:20:07;10.40;;;2.58;;
59336;SDS011;45115;52.002;4.686;2022-10-16T09:22:45;7.97;;;2.70;;
59336;SDS011;45115;52.002;4.686;2022-10-16T09:25:12;7.43;;;2.47;;
59336;SDS011;45115;52.002;4.686;2022-10-16T09:27:40;10.15;;;2.92;;
59336;SDS011;45115;52.002;4.686;2022-10-16T09:30:11;8.50;;;2.80;;
59336;SDS011;45115;52.002;4.686;2022-10-16T09:32:39;6.05;;;2.50;;
59336;SDS011;45115;52.002;4.686;2022-10-16T09:35:13;10.02;;;2.83;;
59336;SDS011;45115;52.002;4.686;2022-10-16T09:37:43;4.53;;;2.53;;
59336;SDS011;45115;52.002;4.686;2022-10-16T09:40:12;8.90;;;2.53;;
59336;SDS011;45115;52.002;4.686;2022-10-16T09:42:39;5.75;;;2.60;;
59336;SDS011;45115;52.002;4.686;2022-10-16T09:45:18;6.30;;;2.40;;
59336;SDS011;45115;52.002;4.686;2022-10-16T09:47:47;9.05;;;2.38;;
59336;SDS011;45115;52.002;4.686;2022-10-16T09:50:22;4.50;;;2.40;;
59336;SDS011;45115;52.002;4.686;2022-10-16T09:53:02;9.65;;;3.10;;
59336;SDS011;45115;52.002;4.686;2022-10-16T09:55:30;8.30;;;2.72;;
59336;SDS011;45115;52.002;4.686;2022-10-16T09:57:56;7.80;;;2.58;;
59336;SDS011;45115;52.002;4.686;2022-10-16T10:00:23;8.77;;;3.10;;
59336;SDS011;45115;52.002;4.686;2022-10-16T10:02:51;13.13;;;3.50;;
59336;SDS011;45115;52.002;4.686;2022-10-16T10:05:19;6.90;;;2.90;;
59336;SDS011;45115;52.002;4.686;2022-10-16T10:07:53;7.50;;;2.50;;
59336;SDS011;45115;52.002;4.686;2022-10-16T10:10:23;11.60;;;3.22;;
59336;SDS011;45115;52.002;4.686;2022-10-16T10:12:51;9.40;;;3.08;;
59336;SDS011;45115;52.002;4.686;2022-10-16T10:15:18;8.32;;;2.95;;
59336;SDS011;45115;52.002;4.686;2022-10-16T10:17:47;6.75;;;2.75;;
59336;SDS011;45115;52.002;4.686;2022-10-16T10:20:23;6.47;;;2.58;;
59336;SDS011;45115;52.002;4.686;2022-10-16T10:22:53;7.82;;;3.00;;
59336;SDS011;45115;52.002;4.686;2022-10-16T10:25:23;9.70;;;3.20;;
59336;SDS011;45115;52.002;4.686;2022-10-16T10:28:16;14.35;;;2.75;;
59336;SDS011;45115;52.002;4.686;2022-10-16T10:30:52;6.47;;;2.72;;
59336;SDS011;45115;52.002;4.686;2022-10-16T10:33:28;8.23;;;2.50;;
59336;SDS011;45115;52.002;4.686;2022-10-16T10:36:05;5.60;;;2.40;;
59336;SDS011;45115;52.002;4.686;2022-10-16T10:38:42;8.68;;;2.65;;
59336;SDS011;45115;52.002;4.686;2022-10-16T10:41:18;11.07;;;2.60;;
59336;SDS011;45115;52.002;4.686;2022-10-16T10:43:56;8.88;;;2.75;;
59336;SDS011;45115;52.002;4.686;2022-10-16T10:46:34;7.32;;;3.10;;
59336;SDS011;45115;52.002;4.686;2022-10-16T10:49:10;11.25;;;2.60;;
59336;SDS011;45115;52.002;4.686;2022-10-16T10:51:52;8.23;;;2.63;;
59336;SDS011;45115;52.002;4.686;2022-10-16T10:54:25;10.55;;;3.45;;
59336;SDS011;45115;52.002;4.686;2022-10-16T10:57:00;8.68;;;3.00;;
59336;SDS011;45115;52.002;4.686;2022-10-16T11:02:31;7.40;;;2.60;;
59336;SDS011;45115;52.002;4.686;2022-10-16T11:05:09;7.53;;;2.30;;
59336;SDS011;45115;52.002;4.686;2022-10-16T11:07:50;6.50;;;2.20;;
59336;SDS011;45115;52.002;4.686;2022-10-16T11:10:24;7.88;;;2.72;;
59336;SDS011;45115;52.002;4.686;2022-10-16T11:12:55;10.13;;;2.40;;
59336;SDS011;45115;52.002;4.686;2022-10-16T11:15:25;6.88;;;1.88;;
59336;SDS011;45115;52.002;4.686;2022-10-16T11:17:57;8.30;;;2.08;;
59336;SDS011;45115;52.002;4.686;2022-10-16T11:20:32;6.45;;;2.08;;
59336;SDS011;45115;52.002;4.686;2022-10-16T11:23:05;9.13;;;2.20;;
59336;SDS011;45115;52.002;4.686;2022-10-16T11:25:38;6.35;;;2.13;;
59336;SDS011;45115;52.002;4.686;2022-10-16T11:28:07;7.72;;;2.10;;
59336;SDS011;45115;52.002;4.686;2022-10-16T11:30:39;7.82;;;2.30;;
59336;SDS011;45115;52.002;4.686;2022-10-16T11:33:18;9.95;;;1.98;;
59336;SDS011;45115;52.002;4.686;2022-10-16T11:35:53;10.93;;;2.58;;
59336;SDS011;45115;52.002;4.686;2022-10-16T11:38:26;8.02;;;2.20;;
59336;SDS011;45115;52.002;4.686;2022-10-16T11:40:59;6.85;;;1.90;;
59336;SDS011;45115;52.002;4.686;2022-10-16T11:43:31;7.82;;;2.28;;
59336;SDS011;45115;52.002;4.686;2022-10-16T11:46:02;10.73;;;2.33;;
59336;SDS011;45115;52.002;4.686;2022-10-16T11:48:35;11.98;;;2.60;;
59336;SDS011;45115;52.002;4.686;2022-10-16T11:51:08;6.57;;;2.00;;
59336;SDS011;45115;52.002;4.686;2022-10-16T11:53:44;6.35;;;1.95;;
59336;SDS011;45115;52.002;4.686;2022-10-16T11:56:13;8.98;;;2.05;;
59336;SDS011;45115;52.002;4.686;2022-10-16T11:58:45;6.63;;;2.63;;
59336;SDS011;45115;52.002;4.686;2022-10-16T12:01:21;9.10;;;3.15;;
59336;SDS011;45115;52.002;4.686;2022-10-16T12:03:56;6.07;;;2.05;;
59336;SDS011;45115;52.002;4.686;2022-10-16T12:06:31;8.80;;;2.40;;
59336;SDS011;45115;52.002;4.686;2022-10-16T12:09:04;7.07;;;2.33;;
59336;SDS011;45115;52.002;4.686;2022-10-16T12:11:33;10.45;;;2.10;;
59336;SDS011;45115;52.002;4.686;2022-10-16T12:14:21;5.53;;;1.88;;
59336;SDS011;45115;52.002;4.686;2022-10-16T12:17:01;11.40;;;2.25;;
59336;SDS011;45115;52.002;4.686;2022-10-16T12:19:31;7.00;;;1.90;;
59336;SDS011;45115;52.002;4.686;2022-10-16T12:21:59;6.68;;;1.85;;
59336;SDS011;45115;52.002;4.686;2022-10-16T12:24:32;6.77;;;2.20;;
59336;SDS011;45115;52.002;4.686;2022-10-16T12:27:01;9.43;;;2.17;;
59336;SDS011;45115;52.002;4.686;2022-10-16T12:29:32;5.25;;;1.98;;
59336;SDS011;45115;52.002;4.686;2022-10-16T12:32:01;10.18;;;2.40;;
59336;SDS011;45115;52.002;4.686;2022-10-16T12:34:32;9.30;;;2.10;;
59336;SDS011;45115;52.002;4.686;2022-10-16T12:37:08;9.57;;;2.10;;
59336;SDS011;45115;52.002;4.686;2022-10-16T12:39:40;5.25;;;1.85;;
59336;SDS011;45115;52.002;4.686;2022-10-16T12:42:19;7.22;;;2.45;;
59336;SDS011;45115;52.002;4.686;2022-10-16T12:44:49;8.05;;;2.05;;
59336;SDS011;45115;52.002;4.686;2022-10-16T12:47:19;6.88;;;1.95;;
59336;SDS011;45115;52.002;4.686;2022-10-16T12:50:01;5.13;;;2.17;;
59336;SDS011;45115;52.002;4.686;2022-10-16T12:52:31;10.00;;;2.30;;
59336;SDS011;45115;52.002;4.686;2022-10-16T12:55:04;6.30;;;2.10;;
59336;SDS011;45115;52.002;4.686;2022-10-16T12:57:35;8.73;;;2.13;;
59336;SDS011;45115;52.002;4.686;2022-10-16T13:00:13;6.88;;;1.98;;
59336;SDS011;45115;52.002;4.686;2022-10-16T13:03:00;8.52;;;2.10;;
59336;SDS011;45115;52.002;4.686;2022-10-16T13:05:47;8.40;;;2.15;;
59336;SDS011;45115;52.002;4.686;2022-10-16T13:08:33;6.20;;;1.70;;
59336;SDS011;45115;52.002;4.686;2022-10-16T13:11:12;6.70;;;2.28;;
59336;SDS011;45115;52.002;4.686;2022-10-16T13:13:53;5.10;;;2.00;;
59336;SDS011;45115;52.002;4.686;2022-10-16T13:16:35;8.73;;;2.40;;
59336;SDS011;45115;52.002;4.686;2022-10-16T13:19:18;5.05;;;2.00;;
59336;SDS011;45115;52.002;4.686;2022-10-16T13:21:53;11.15;;;2.33;;
59336;SDS011;45115;52.002;4.686;2022-10-16T13:24:33;4.93;;;1.88;;
59336;SDS011;45115;52.002;4.686;2022-10-16T13:27:18;6.22;;;1.90;;
59336;SDS011;45115;52.002;4.686;2022-10-16T13:29:59;7.32;;;2.20;;
59336;SDS011;45115;52.002;4.686;2022-10-16T13:32:28;10.35;;;2.53;;
59336;SDS011;45115;52.002;4.686;2022-10-16T13:34:55;8.98;;;2.20;;
59336;SDS011;45115;52.002;4.686;2022-10-16T13:37:23;10.07;;;2.78;;
59336;SDS011;45115;52.002;4.686;2022-10-16T13:39:50;7.53;;;2.03;;
59336;SDS011;45115;52.002;4.686;2022-10-16T13:42:21;7.13;;;2.35;;
59336;SDS011;45115;52.002;4.686;2022-10-16T13:44:51;7.53;;;2.33;;
59336;SDS011;45115;52.002;4.686;2022-10-16T13:47:19;11.45;;;1.83;;
59336;SDS011;45115;52.002;4.686;2022-10-16T13:49:58;10.60;;;2.20;;
59336;SDS011;45115;52.002;4.686;2022-10-16T13:52:26;10.85;;;2.25;;
59336;SDS011;45115;52.002;4.686;2022-10-16T13:54:53;8.00;;;2.15;;
59336;SDS011;45115;52.002;4.686;2022-10-16T13:57:21;9.30;;;2.38;;
59336;SDS011;45115;52.002;4.686;2022-10-16T13:59:49;7.65;;;2.05;;
59336;SDS011;45115;52.002;4.686;2022-10-16T14:02:18;9.07;;;2.30;;
59336;SDS011;45115;52.002;4.686;2022-10-16T14:04:48;7.05;;;2.25;;
59336;SDS011;45115;52.002;4.686;2022-10-16T14:07:17;8.77;;;2.72;;
59336;SDS011;45115;52.002;4.686;2022-10-16T14:09:48;10.68;;;2.33;;
59336;SDS011;45115;52.002;4.686;2022-10-16T14:12:16;6.85;;;2.20;;
59336;SDS011;45115;52.002;4.686;2022-10-16T14:14:45;8.48;;;2.20;;
59336;SDS011;45115;52.002;4.686;2022-10-16T14:17:13;5.75;;;2.03;;
59336;SDS011;45115;52.002;4.686;2022-10-16T14:19:44;6.60;;;2.25;;
59336;SDS011;45115;52.002;4.686;2022-10-16T14:22:26;4.78;;;2.33;;
59336;SDS011;45115;52.002;4.686;2022-10-16T14:24:56;8.32;;;2.15;;
59336;SDS011;45115;52.002;4.686;2022-10-16T14:27:30;9.63;;;2.55;;
59336;SDS011;45115;52.002;4.686;2022-10-16T14:30:14;5.95;;;2.63;;
59336;SDS011;45115;52.002;4.686;2022-10-16T14:32:52;7.15;;;2.25;;
59336;SDS011;45115;52.002;4.686;2022-10-16T14:35:28;9.25;;;2.47;;
59336;SDS011;45115;52.002;4.686;2022-10-16T14:37:56;10.70;;;2.33;;
59336;SDS011;45115;52.002;4.686;2022-10-16T14:40:25;8.57;;;2.42;;
59336;SDS011;45115;52.002;4.686;2022-10-16T14:42:53;12.23;;;3.17;;
59336;SDS011;45115;52.002;4.686;2022-10-16T14:45:22;10.68;;;2.20;;
59336;SDS011;45115;52.002;4.686;2022-10-16T14:50:19;7.35;;;2.40;;
59336;SDS011;45115;52.002;4.686;2022-10-16T14:52:46;6.90;;;2.33;;
59336;SDS011;45115;52.002;4.686;2022-10-16T14:55:12;8.10;;;2.50;;
59336;SDS011;45115;52.002;4.686;2022-10-16T14:57:39;8.60;;;2.65;;
59336;SDS011;45115;52.002;4.686;2022-10-16T15:00:10;11.40;;;2.78;;
59336;SDS011;45115;52.002;4.686;2022-10-16T15:02:43;5.55;;;2.15;;
59336;SDS011;45115;52.002;4.686;2022-10-16T15:05:12;9.48;;;2.30;;
59336;SDS011;45115;52.002;4.686;2022-10-16T15:07:41;6.82;;;2.10;;
59336;SDS011;45115;52.002;4.686;2022-10-16T15:10:08;5.15;;;2.00;;
59336;SDS011;45115;52.002;4.686;2022-10-16T15:12:35;6.93;;;2.25;;